LiveATC.Net - Listen to live air traffic control over the Internet!


ICAO: TTCP  IATA: TAB   Airport: A. N. R. Robinson International Airport
City: Scarborough
Country: Trinidad and Tobago   Continent: South America
TTCP METAR Weather: TTCP 241100Z 05004KT 9999 FEW016 24/19 Q1015 NOSIG
TTCP Flight Activity (FlightAware)

TTCP Gnd/Twr/App
Feed Status: UP   Listeners: 0
Listen in your browser - HTML5 player (in browser, HTML5)
Click here to listen with your own player (launches your MP3 player)
TTCP Gnd/Twr/App Audio Archives
FacilityFrequency
Piarco Approach119.000
Robinson Ground121.700
Robinson Tower118.400

NOTICE

Unauthorized use prohibited. See LiveATC.net Terms of Service


Find LiveATC Audio Streams


Airport/ARTCC Code

Frequency Search
(e.g., 124.400, 128.75)
Site-wide search
 


Browse LiveATC Feeds
Top 50 LiveATC Feeds
LiveATC Feed Map
Bad Weather Areas

LiveATC FAQ
Offer LiveATC feed
Contact LiveATC.net
Press Inquiries

LiveATC on iPhone
LiveATC on Android

Windows Phone
Windows 8/10

LiveATC Mobile
(Mobile browser)

ATC Audio Archives
Interesting Recordings

LiveATC Forums


Home Page
About LiveATC.net
Make a Donation
Terms of Use
Privacy Policy

Canadian Air Freqs

AIRMETs/SIGMETs

FAA Airport Status
Nat'l Airspace Status
Arrival Demand Charts


Server Software By:
Icecast.org
Liquidsoap